Home > Products > Valid Products > MTR

000
SAUS44 KLZK 021854
MTRMWT
METAR KMWT 021853Z AUTO VRB03KT 10SM CLR 27/20 A3001 RMK AO2 SLP149
T02720200





000
SAUS44 KLZK 021754
MTRMWT
METAR KMWT 021753Z AUTO VRB04KT 10SM FEW042 SCT055 BKN090 22/21
A3008 RMK AO2 RAE47 SLP174 P0011 60027 T02220206 10289 20206 58012





000
SAUS44 KLZK 021735
MTRMWT
SPECI KMWT 021734Z AUTO VRB05KT 3SM -RA BR SCT050 BKN065 OVC090
21/20 A3011 RMK AO2 PRESFR P0011 T02110200





000
SAUS44 KLZK 021727 COR
MTRMWT
SPECI KMWT 021723Z AUTO 15005KT 1 3/4SM +RA BR FEW044 BKN050 OVC070
21/19 A3012 RMK AO2 PRESFR P0003 T02110194





000
SAUS44 KLZK 021654
MTRMWT
METAR KMWT 021653Z AUTO 31005G15KT 8SM -RA FEW027 BKN043 OVC050
21/19 A3017 RMK AO2 RAB1558 SLP207 P0016 T02060194





000
SAUS44 KLZK 021624
MTRMWT
SPECI KMWT 021623Z AUTO 7SM -RA FEW026 OVC034 21/19 A3014 RMK AO2
RAB1558 P0016 T02110194





000
SAUS44 KLZK 021617
MTRMWT
SPECI KMWT 021616Z AUTO 00000KT 2SM -RA BR FEW026 OVC032 21/19 A3013
RMK AO2 RAB1558 P0015 T02060194





000
SAUS44 KLZK 021609
MTRMWT
SPECI KMWT 021607Z AUTO 33005KT 3/4SM +RA BR SCT026 OVC031 21/19
A3012 RMK AO2 RAB1558 P0006 T02110189





000
SAUS44 KLZK 021555
MTRMWT
METAR KMWT 021553Z AUTO 34007KT 10SM SCT026 OVC031 23/19 A3012 RMK
AO2 PRESRR SLP187 T02330189





000
SAUS44 KLZK 021551
MTRMWT
SPECI KMWT 021549Z AUTO VRB05KT 10SM BKN029 OVC055 24/19 A3011 RMK
AO2 PRESRR





000
SAUS44 KLZK 021513
MTRMWT
SPECI KMWT 021511Z AUTO 30003KT 10SM SCT021 SCT055 BKN080 28/23
A3005 RMK AO2 T02830228





000
SAUS44 KLZK 021502
MTRMWT
SPECI KMWT 021501Z AUTO VRB03KT 10SM BKN021 28/23 A3004 RMK AO2
T02830228





000
SAUS44 KLZK 021454
MTRMWT
METAR KMWT 021453Z AUTO VRB06KT 10SM SCT019 29/23 A3004 RMK AO2
SLP156 T02890228 51015





000
SAUS44 KLZK 021354
MTRMWT
METAR KMWT 021353Z AUTO 00000KT 10SM FEW018 SCT023 27/23 A3003 RMK
AO2 SLP154 T02720228





000
SAUS44 KLZK 021254
MTRMWT
METAR KMWT 021253Z AUTO 00000KT 8SM OVC038 26/23 A3001 RMK AO2
SLP149 T02610233





000
SAUS44 KLZK 021224
MTRMWT
SPECI KMWT 021223Z AUTO 00000KT 8SM FEW020 OVC030 25/23 A3000 RMK
AO2 T02500228





000
SAUS44 KLZK 021154
MTRMWT
METAR KMWT 021153Z AUTO 00000KT 9SM FEW020 BKN026 24/23 A2999 RMK
AO2 SLP142 T02440228 10267 20244 53020





000
SAUS44 KLZK 021118
MTRMWT
SPECI KMWT 021117Z AUTO 20003KT 10SM SCT026 26/23 A2996 RMK AO2
T02560228





000
SAUS44 KLZK 021054
MTRMWT
METAR KMWT 021053Z AUTO 00000KT 10SM FEW020 OVC025 26/23 A2996 RMK
AO2 SLP130 T02610228





000
SAUS44 KLZK 020954
MTRMWT
METAR KMWT 020953Z AUTO VRB03KT 10SM OVC020 27/23 A2995 RMK AO2
SLP126 T02670228





000
SAUS44 KLZK 020854
MTRMWT
METAR KMWT 020853Z AUTO 21005KT 10SM OVC019 27/23 A2993 RMK AO2
SLP120 T02670228 55004





000
SAUS44 KLZK 020835
MTRMWT
SPECI KMWT 020834Z AUTO VRB04KT 10SM BKN020 26/23 A2992 RMK AO2
T02610228





000
SAUS44 KLZK 020754
MTRMWT
METAR KMWT 020753Z AUTO VRB03KT 10SM FEW019 26/23 A2991 RMK AO2
SLP113 T02610228





000
SAUS44 KLZK 020654
MTRMWT
METAR KMWT 020653Z AUTO 00000KT 10SM FEW020 27/23 A2992 RMK AO2
SLP117 T02670228





000
SAUS44 KLZK 020554
MTRMWT
METAR KMWT 020553Z AUTO 00000KT 10SM CLR 27/22 A2994 RMK AO2 SLP125
T02670222 10294 20267 403170244 51011





000
SAUS44 KLZK 020454
MTRMWT
METAR KMWT 020453Z AUTO VRB05KT 10SM CLR 27/22 A2993 RMK AO2 SLP121
T02720222





000
SAUS44 KLZK 020354
MTRMWT
METAR KMWT 020353Z AUTO 00000KT 10SM CLR 27/22 A2993 RMK AO2 SLP121
T02720222





000
SAUS44 KLZK 020354
MTRMWT
METAR KMWT 020353Z AUTO 00000KT 10SM CLR 27/22 A2993 RMK AO2 SLP121
T02720222





000
SAUS44 KLZK 020254
MTRMWT
METAR KMWT 020253Z AUTO VRB05KT 10SM CLR 28/22 A2991 RMK AO2 SLP114
T02780222 53001





000
SAUS44 KLZK 020154
MTRMWT
METAR KMWT 020153Z AUTO 15007KT 10SM CLR 28/23 A2990 RMK AO2 SLP111
T02830228





000
SAUS44 KLZK 020054
MTRMWT
METAR KMWT 020053Z AUTO VRB04KT 10SM CLR 28/22 A2990 RMK AO2 SLP111
T02830222





000
SAUS44 KLZK 012354
MTRMWT
METAR KMWT 012353Z AUTO 00000KT 10SM CLR 29/23 A2991 RMK AO2 SLP113
T02940228 10317 20294 58007





000
SAUS44 KLZK 012254
MTRMWT
METAR KMWT 012253Z AUTO 15004KT 10SM SCT042 31/22 A2991 RMK AO2
SLP114 T03110222





000
SAUS44 KLZK 012154
MTRMWT
METAR KMWT 012153Z AUTO VRB03KT 10SM FEW043 31/22 A2992 RMK AO2
SLP117 T03110222





000
SAUS44 KLZK 012054
MTRMWT
METAR KMWT 012053Z AUTO 18008KT 130V250 10SM FEW040 SCT050 31/22
A2993 RMK AO2 SLP120 T03110222 58021





000
SAUS44 KLZK 011954
MTRMWT
METAR KMWT 011953Z AUTO 16009KT 10SM SCT038 31/22 A2995 RMK AO2
SLP127 T03110217





000
SAUS44 KLZK 011854
MTRMWT
METAR KMWT 011853Z AUTO VRB05KT 10SM SCT037 SCT045 30/22 A2997 RMK
AO2 SLP135 T03000217





000
SAUS44 KLZK 011754
MTRMWT
METAR KMWT 011753Z AUTO VRB06KT 10SM BKN035 29/21 A2999 RMK AO2
SLP141 T02940211 10300 20250 58006





000
SAUS44 KLZK 011654
MTRMWT
METAR KMWT 011653Z AUTO VRB04KT 10SM FEW030 29/22 A3000 RMK AO2
SLP146 T02940217





000
SAUS44 KLZK 011554
MTRMWT
METAR KMWT 011553Z AUTO VRB04KT 10SM FEW029 SCT035 28/21 A3001 RMK
AO2 SLP148 T02830211





000
SAUS44 KLZK 011454
MTRMWT
METAR KMWT 011453Z AUTO VRB03KT 10SM FEW026 SCT044 27/22 A3001 RMK
AO2 SLP149 T02670222 50019





000
SAUS44 KLZK 011354
MTRMWT
METAR KMWT 011353Z AUTO 00000KT 9SM OVC037 26/22 A3002 RMK AO2
SLP152 T02560222





000
SAUS44 KLZK 011338
MTRMWT
SPECI KMWT 011337Z AUTO 00000KT 9SM BKN030 OVC039 26/22 A3001 RMK
AO2 T02560217





000
SAUS44 KLZK 011254
MTRMWT
METAR KMWT 011253Z AUTO VRB03KT 9SM OVC021 25/22 A3000 RMK AO2
SLP146 T02500217





000
SAUS44 KLZK 011154
MTRMWT
METAR KMWT 011153Z AUTO VRB03KT 10SM OVC020 25/22 A2995 RMK AO2
SLP128 T02500217 10256 20244 53008





000
SAUS44 KLZK 011054
MTRMWT
METAR KMWT 011053Z AUTO VRB05KT 10SM OVC018 25/22 A2994 RMK AO2
SLP124 T02500217





000
SAUS44 KLZK 010954
MTRMWT
METAR KMWT 010953Z AUTO VRB03KT 10SM BKN020 BKN025 25/21 A2994 RMK
AO2 SLP123 T02500211





000
SAUS44 KLZK 010945
MTRMWT
SPECI KMWT 010944Z AUTO VRB05KT 10SM BKN020 24/21 A2993 RMK AO2
T02440211





000
SAUS44 KLZK 010854
MTRMWT
METAR KMWT 010853Z AUTO VRB06KT 10SM FEW019 24/21 A2993 RMK AO2
SLP120 T02440211 58006





000
SAUS44 KLZK 010754
MTRMWT
METAR KMWT 010753Z AUTO VRB03KT 10SM CLR 24/21 A2995 RMK AO2 SLP127
T02440206





000
SAUS44 KLZK 010655 COR
MTRMWT
METAR KMWT 010653Z AUTO 00000KT 10SM CLR 25/21 A2995 RMK AO2 SLP129
T02500206





000
SAUS44 KLZK 010554
MTRMWT
METAR KMWT 010553Z AUTO VRB04KT 10SM CLR 26/21 A2994 RMK AO2 SLP126
T02560206 10283 20256 403060206 51009





000
SAUS44 KLZK 010454
MTRMWT
METAR KMWT 010453Z AUTO 20003KT 10SM CLR 26/21 A2993 RMK AO2 SLP123
T02610211





000
SAUS44 KLZK 010354
MTRMWT
METAR KMWT 010353Z AUTO VRB05KT 10SM CLR 26/22 A2993 RMK AO2 SLP123
T02610222





000
SAUS44 KLZK 010254
MTRMWT
METAR KMWT 010253Z AUTO VRB03KT 10SM FEW034 FEW046 26/23 A2992 RMK
AO2 SLP119 T02610228 55006





000
SAUS44 KLZK 010154
MTRMWT
METAR KMWT 010153Z AUTO 15005KT 10SM CLR 27/22 A2991 RMK AO2 SLP117
T02670222





000
SAUS44 KLZK 010154
MTRMWT
METAR KMWT 010153Z AUTO 15005KT 10SM CLR 27/22 A2991 RMK AO2 SLP117
T02670222





000
SAUS44 KLZK 010054
MTRMWT
METAR KMWT 010053Z AUTO VRB04KT 10SM CLR 27/23 A2993 RMK AO2 SLP122
T02720228





000
SAUS44 KLZK 312354
MTRMWT
METAR KMWT 312353Z AUTO VRB04KT 10SM CLR 29/23 A2993 RMK AO2 SLP125
T02890228 10306 20283 58009





000
SAUS44 KLZK 312254
MTRMWT
METAR KMWT 312253Z AUTO 10SM CLR 29/23 A2994 RMK AO2 SLP128
T02940228





000
SAUS44 KLZK 312154
MTRMWT
METAR KMWT 312153Z AUTO VRB03KT 10SM FEW029 FEW044 29/23 A2995 RMK
AO2 SLP132 T02890228





000
SAUS44 KLZK 312146
MTRMWT
SPECI KMWT 312144Z AUTO 15007KT 120V190 10SM FEW029 30/23 A2996 RMK
AO2 T03000228





000
SAUS44 KLZK 312134
MTRMWT
SPECI KMWT 312133Z AUTO VRB04KT 10SM BKN029 30/23 A2996 RMK AO2
T03000228





000
SAUS44 KLZK 312054
MTRMWT
METAR KMWT 312053Z AUTO 14008KT 10SM FEW029 29/23 A2996 RMK AO2
SLP134 T02940233 56015





000
SAUS44 KLZK 311954
MTRMWT
METAR KMWT 311953Z AUTO VRB04KT 10SM SCT030 BKN038 31/23 A2997 RMK
AO2 SLP136 T03060233





000
SAUS44 KLZK 311854
MTRMWT
METAR KMWT 311853Z AUTO VRB05KT 10SM FEW028 FEW037 SCT045 30/23
A2999 RMK AO2 SLP142 T03000228





000
SAUS44 KLZK 311754
MTRMWT
METAR KMWT 311753Z AUTO VRB04KT 10SM FEW019 SCT027 BKN033 29/23
A3001 RMK AO2 SLP148 T02890228 10294 20217 58004





000
SAUS44 KLZK 311654
MTRMWT
METAR KMWT 311653Z AUTO 17004KT 10SM BKN017 BKN022 27/23 A3002 RMK
AO2 SLP152 T02720228





000
SAUS44 KLZK 311638
MTRMWT
SPECI KMWT 311637Z AUTO VRB03KT 10SM BKN016 OVC022 27/23 A3002 RMK
AO2 T02720228





000
SAUS44 KLZK 311612
MTRMWT
SPECI KMWT 311611Z AUTO VRB04KT 10SM OVC014 27/23 A3003 RMK AO2
T02670228





000
SAUS44 KLZK 311601
MTRMWT
SPECI KMWT 311600Z AUTO VRB03KT 10SM OVC015 26/23 A3002 RMK AO2
T02610228





000
SAUS44 KLZK 311554
MTRMWT
METAR KMWT 311553Z AUTO 00000KT 10SM OVC014 27/23 A3003 RMK AO2
SLP157 T02670228





000
SAUS44 KLZK 311456 COR
MTRMWT
METAR KMWT 311453Z AUTO VRB04KT 10SM OVC012 25/23 A3002 RMK AO2
SLP155 T02500228 51010





000
SAUS44 KLZK 311354
MTRMWT
METAR KMWT 311353Z AUTO 00000KT 10SM OVC012 25/23 A3001 RMK AO2
SLP152 T02500228





000
SAUS44 KLZK 311254
MTRMWT
METAR KMWT 311253Z AUTO 00000KT 8SM OVC012 23/22 A3000 RMK AO2
SLP149 T02330222





000
SAUS44 KLZK 311222
MTRMWT
SPECI KMWT 311220Z AUTO 00000KT 10SM BKN009 OVC013 22/21 A3000 RMK
AO2 T02220211





000
SAUS44 KLZK 311206
MTRMWT
SPECI KMWT 311205Z AUTO 00000KT 10SM OVC011 22/21 A3000 RMK AO2
T02170211





000
SAUS44 KLZK 311154
MTRMWT
METAR KMWT 311153Z AUTO 00000KT 10SM OVC009 22/21 A2999 RMK AO2 CIG
008V013 SLP144 70124 T02170211 10228 20206 53010





000
SAUS44 KLZK 311131
MTRMWT
SPECI KMWT 311130Z AUTO 00000KT 10SM OVC009 22/21 A2998 RMK AO2
T02170206





000
SAUS44 KLZK 311054
MTRMWT
METAR KMWT 311053Z AUTO 00000KT 10SM OVC012 21/20 A2998 RMK AO2
SLP141 T02060200





000
SAUS44 KLZK 311040
MTRMWT
SPECI KMWT 311039Z AUTO 00000KT 8SM BKN012 21/20 A2997 RMK AO2
T02060200





000
SAUS44 KLZK 311021
MTRMWT
SPECI KMWT 311020Z AUTO 00000KT 3SM BR CLR 21/19 A2997 RMK AO2
T02060194





000
SAUS44 KLZK 310954
MTRMWT
METAR KMWT 310953Z AUTO 00000KT 1 3/4SM BR FEW002 21/19 A2996 RMK
AO2 SLP136 T02060194





000
SAUS44 KLZK 310932
MTRMWT
SPECI KMWT 310930Z AUTO 00000KT 1SM BR VV002 21/20 A2996 RMK AO2
T02060200





000
SAUS44 KLZK 310920
MTRMWT
SPECI KMWT 310919Z AUTO 00000KT 1 1/4SM BR FEW002 21/20 A2996 RMK
AO2 VIS 1/2V2 1/2 T02060200





000
SAUS44 KLZK 310911
MTRMWT
SPECI KMWT 310910Z AUTO 00000KT 1/2SM FG VV002 21/20 A2996 RMK AO2
T02060200





000
SAUS44 KLZK 310904
MTRMWT
SPECI KMWT 310903Z AUTO 00000KT 1SM BR VV002 21/20 A2996 RMK AO2
T02060200





000
SAUS44 KLZK 310854
MTRMWT
METAR KMWT 310853Z AUTO 00000KT 1SM BR CLR 21/20 A2996 RMK AO2
SLP134 T02060200 58001





000
SAUS44 KLZK 310850
MTRMWT
SPECI KMWT 310849Z AUTO 00000KT 1SM BR VV002 21/20 A2996 RMK AO2





000
SAUS44 KLZK 310840
MTRMWT
SPECI KMWT 310839Z AUTO 00000KT 2 1/2SM BR FEW002 21/20 A2996 RMK
AO2 VIS 1 1/4V5 T02110200





000
SAUS44 KLZK 310831
MTRMWT
SPECI KMWT 310830Z AUTO 00000KT 1 1/4SM BR FEW002 21/20 A2996 RMK
AO2 T02110200





000
SAUS44 KLZK 310819
MTRMWT
SPECI KMWT 310818Z AUTO 00000KT 3/4SM BR VV002 21/20 A2996 RMK AO2
T02110200





000
SAUS44 KLZK 310809
MTRMWT
SPECI KMWT 310808Z AUTO 00000KT 1SM BR VV001 21/20 A2996 RMK AO2 VIS
3/4V2 T02110200





000
SAUS44 KLZK 310755
MTRMWT
METAR KMWT 310753Z AUTO 00000KT 1/2SM FG VV001 21/20 A2996 RMK AO2
SLP134 T02110200





000
SAUS44 KLZK 310746
MTRMWT
SPECI KMWT 310745Z AUTO 00000KT 1/2SM FG VV002 21/21 A2996 RMK AO2
T02110206





000
SAUS44 KLZK 310739
MTRMWT
SPECI KMWT 310738Z AUTO 00000KT 1SM BR VV001 21/21 A2996 RMK AO2
T02110206





000
SAUS44 KLZK 310737
MTRMWT
SPECI KMWT 310736Z AUTO 00000KT 1 3/4SM BR CLR 22/21 A2996 RMK AO2
T02170206





000
SAUS44 KLZK 310730
MTRMWT
SPECI KMWT 310729Z AUTO 00000KT 4SM BR CLR 22/21 A2996 RMK AO2
T02170206





000
SAUS44 KLZK 310721
MTRMWT
SPECI KMWT 310720Z AUTO 00000KT 2SM BR CLR 22/21 A2996 RMK AO2 VIS 1
1/2V5 T02170206





000
SAUS44 KLZK 310654
MTRMWT
METAR KMWT 310653Z AUTO 00000KT 10SM FEW012 22/21 A2997 RMK AO2
SLP136 T02220211





000
SAUS44 KLZK 310554
MTRMWT
METAR KMWT 310553Z AUTO 00000KT 10SM SCT013 23/21 A2996 RMK AO2
SLP134 T02280211 10239 20217 403000217 51000





000
SAUS44 KLZK 310551
MTRMWT
SPECI KMWT 310550Z AUTO 00000KT 10SM SCT014 23/21 A2996 RMK AO2





000
SAUS44 KLZK 310454
MTRMWT
METAR KMWT 310453Z AUTO 00000KT 10SM BKN013 22/21 A2997 RMK AO2
SLP136 T02220211





000
SAUS44 KLZK 310354
MTRMWT
METAR KMWT 310353Z AUTO 00000KT 4SM BR CLR 22/21 A2996 RMK AO2
SLP135 T02220211





000
SAUS44 KLZK 310254
MTRMWT
METAR KMWT 310253Z AUTO 00000KT 10SM CLR 23/22 A2996 RMK AO2 SLP132
T02280217 51013





000
SAUS44 KLZK 310154
MTRMWT
METAR KMWT 310153Z AUTO 00000KT 5SM BR CLR 23/22 A2995 RMK AO2
SLP132 T02280222





000
SAUS44 KLZK 310054
MTRMWT
METAR KMWT 310053Z AUTO 00000KT 5SM BR CLR 24/23 A2992 RMK AO2
SLP123 T02390228





000
SAUS44 KLZK 302354
MTRMWT
METAR KMWT 302353Z AUTO 00000KT 10SM CLR 26/24 A2992 RMK AO2 SLP120
60124 T02610244 10300 20233 58006





000
SAUS44 KLZK 302255
MTRMWT
METAR KMWT 302253Z AUTO 00000KT 10SM CLR 26/23 A2992 RMK AO2 RAE25
SLP122 P0014 T02560233





000
SAUS44 KLZK 302215
MTRMWT
SPECI KMWT 302214Z AUTO 00000KT 3SM -RA BR BKN041 BKN060 OVC090
24/23 A2992 RMK AO2 P0014 T02440233





000
SAUS44 KLZK 302204
MTRMWT
SPECI KMWT 302202Z AUTO 00000KT 1SM +RA BR BKN031 BKN045 OVC055
24/23 A2993 RMK AO2 P0010 T02390228





000
SAUS44 KLZK 302154
MTRMWT
METAR KMWT 302153Z AUTO 08003KT 3/4SM +RA BR BKN028 BKN055 23/22
A2994 RMK AO2 RAB18 SLP127 P0110 T02330222





000
SAUS44 KLZK 302132
MTRMWT
SPECI KMWT 302131Z AUTO VRB05KT 1/4SM +RA FG BKN024 OVC037 24/23
A2995 RMK AO2 RAB18 PRESRR P0024 T02440228





000
SAUS44 KLZK 302125
MTRMWT
SPECI KMWT 302124Z AUTO VRB03KT 1 1/4SM +RA FEW021 BKN026 OVC037
26/22 A2994 RMK AO2 RAB18 P0001 T02560222





000
SAUS44 KLZK 302123
MTRMWT
SPECI KMWT 302122Z AUTO VRB04KT 3SM RA FEW021 BKN026 OVC070 26/22
A2993 RMK AO2 RAB18 P0000 T02610222





000
SAUS44 KLZK 302054
MTRMWT
METAR KMWT 302053Z AUTO 32003KT 10SM SCT028 SCT033 BKN050 28/22
A2992 RMK AO2 SLP121 60000 T02830222 58019





000
SAUS44 KLZK 301954
MTRMWT
METAR KMWT 301953Z AUTO 00000KT 10SM FEW095 29/23 A2994 RMK AO2
RAE23 SLP125 P0000 T02940228





    US Dept of Commerce
    National Oceanic and Atmospheric Administration
    National Weather Service
    1325 East West Highway
    Silver Spring, MD 20910
    Page Author: NWS Internet Services Team
Disclaimer
Information Quality
Credits
Glossary
Privacy Policy
Freedom of Information Act (FOIA)
About Us
Career Opportunities